createdAt,value
2023-02-11T00:02:10.102Z,102048.63
2023-02-11T00:05:11.705Z,102036.91
2023-02-11T00:08:16.926Z,102055.00
2023-02-11T00:11:21.704Z,102054.13
2023-02-11T00:14:23.164Z,102044.28
2023-02-11T00:17:24.671Z,102038.00
2023-02-11T00:20:26.146Z,102020.84
2023-02-11T00:23:27.603Z,102025.41
2023-02-11T00:26:32.659Z,102048.84
2023-02-11T00:29:34.236Z,102050.66
2023-02-11T00:32:40.892Z,102048.84
2023-02-11T00:35:42.345Z,102055.13
2023-02-11T00:38:45.313Z,102050.47
2023-02-11T00:41:46.808Z,102040.47
2023-02-11T00:44:48.283Z,102035.91
2023-02-11T00:47:51.790Z,102047.63
2023-02-11T00:50:53.264Z,102055.75
2023-02-11T00:53:55.349Z,102061.19
2023-02-11T00:56:57.804Z,102068.44
2023-02-11T00:59:59.476Z,102078.44
2023-02-11T01:03:00.975Z,102063.13
2023-02-11T01:06:02.712Z,102060.41
2023-02-11T01:09:04.426Z,102066.84
2023-02-11T01:12:06.249Z,102070.41
2023-02-11T01:15:09.109Z,102065.13
2023-02-11T01:18:10.559Z,102054.28
2023-02-11T01:21:12.342Z,102042.53
2023-02-11T01:24:13.807Z,102052.66
2023-02-11T01:27:15.339Z,102050.81
2023-02-11T01:30:16.874Z,102046.50
2023-02-11T01:33:18.810Z,102032.06
2023-02-11T01:36:20.385Z,102033.03
2023-02-11T01:39:21.882Z,102029.56
2023-02-11T01:42:24.277Z,102026.84
2023-02-11T01:45:55.325Z,102026.84
2023-02-11T01:49:12.395Z,102017.00
2023-02-11T01:52:25.961Z,102013.44
2023-02-11T01:55:46.185Z,102000.84
2023-02-11T01:58:51.503Z,102004.56
2023-02-11T02:02:03.898Z,102006.28
2023-02-11T02:05:20.347Z,101992.84
2023-02-11T02:08:43.253Z,101985.56
2023-02-11T02:11:44.704Z,101980.41
2023-02-11T02:14:46.215Z,101962.38
2023-02-11T02:17:58.584Z,101953.28
2023-02-11T02:21:09.139Z,101943.31
2023-02-11T02:24:41.583Z,101950.69
2023-02-11T02:28:03.294Z,101959.66
2023-02-11T02:31:19.233Z,101959.91
2023-02-11T02:34:37.719Z,101960.91
2023-02-11T02:38:01.444Z,101965.56
2023-02-11T02:41:29.666Z,101960.25
2023-02-11T02:44:31.839Z,101965.81
2023-02-11T02:47:33.307Z,101956.94
2023-02-11T02:50:37.249Z,101948.81
2023-02-11T02:53:51.013Z,101933.41
2023-02-11T02:57:30.392Z,101934.41
2023-02-11T03:00:51.935Z,101936.25
2023-02-11T03:04:17.732Z,101933.41
2023-02-11T03:07:35.120Z,101939.56
2023-02-11T03:10:42.980Z,101942.28
2023-02-11T03:13:45.992Z,101916.19
2023-02-11T03:16:49.163Z,101901.63
2023-02-11T03:19:51.711Z,101880.94
2023-02-11T03:22:58.054Z,101898.06
2023-02-11T03:26:04.958Z,101899.91
2023-02-11T03:29:07.455Z,101900.03
2023-02-11T03:32:47.435Z,101891.88
2023-02-11T03:35:55.918Z,101871.22
2023-02-11T03:39:00.230Z,101871.31
2023-02-11T03:42:04.051Z,101869.59
2023-02-11T03:45:10.642Z,101885.97
2023-02-11T03:48:16.495Z,101884.25
2023-02-11T03:51:20.601Z,101895.31
2023-02-11T03:54:29.472Z,101902.56
2023-02-11T03:57:31.101Z,101898.16
2023-02-11T04:00:35.032Z,101889.16
2023-02-11T04:03:36.670Z,101904.66
2023-02-11T04:06:38.579Z,101905.53
2023-02-11T04:09:40.066Z,101901.97
2023-02-11T04:12:41.529Z,101900.09
2023-02-11T04:15:43.118Z,101907.38
2023-02-11T04:18:44.652Z,101914.41
2023-02-11T04:21:47.033Z,101910.84
2023-02-11T04:24:48.533Z,101918.06
2023-02-11T04:27:49.996Z,101913.56
2023-02-11T04:30:51.609Z,101918.97
2023-02-11T04:33:53.146Z,101899.00
2023-02-11T04:36:54.704Z,101899.88
2023-02-11T04:39:56.226Z,101891.97
2023-02-11T04:42:57.701Z,101898.25
2023-02-11T04:45:59.300Z,101895.69
2023-02-11T04:49:01.033Z,101892.09
2023-02-11T04:52:02.497Z,101892.09
2023-02-11T04:55:04.394Z,101887.66
2023-02-11T04:58:05.955Z,101902.19
2023-02-11T05:01:13.385Z,101907.63
2023-02-11T05:04:15.183Z,101896.03
2023-02-11T05:07:16.748Z,101898.75
2023-02-11T05:10:18.294Z,101907.97
2023-02-11T05:13:19.871Z,101897.13
2023-02-11T05:16:21.593Z,101887.38
2023-02-11T05:19:23.137Z,101890.19
2023-02-11T05:22:24.628Z,101882.94
2023-02-11T05:25:26.107Z,101881.22
2023-02-11T05:28:27.887Z,101888.34
2023-02-11T05:31:29.418Z,101898.22
2023-02-11T05:34:30.943Z,101906.34
2023-02-11T05:37:32.445Z,101897.13
2023-02-11T05:40:33.968Z,101906.13
2023-02-11T05:43:36.511Z,101895.28
2023-02-11T05:46:38.139Z,101885.28
2023-02-11T05:49:39.651Z,101898.84
2023-02-11T05:52:41.165Z,101910.53
2023-02-11T05:55:42.861Z,101910.53
2023-02-11T05:58:44.328Z,101903.28
2023-02-11T06:01:45.922Z,101911.44
2023-02-11T06:04:47.353Z,101901.56
2023-02-11T06:07:48.830Z,101891.81
2023-02-11T06:10:50.343Z,101896.28
2023-02-11T06:13:51.859Z,101893.56
2023-02-11T06:16:53.334Z,101889.25
2023-02-11T06:19:54.846Z,101894.66
2023-02-11T06:22:56.313Z,101899.09
2023-02-11T06:26:02.044Z,101895.50
2023-02-11T06:29:03.585Z,101899.31
2023-02-11T06:32:05.259Z,101903.88
2023-02-11T06:35:09.424Z,101904.84
2023-02-11T06:38:12.203Z,101895.00
2023-02-11T06:41:16.350Z,101890.56
2023-02-11T06:44:17.873Z,101897.91
2023-02-11T06:47:19.357Z,101892.50
2023-02-11T06:50:20.919Z,101887.84
2023-02-11T06:53:22.402Z,101901.28
2023-02-11T06:56:27.196Z,101901.19
2023-02-11T06:59:28.720Z,101903.88
2023-02-11T07:02:30.335Z,101913.72
2023-02-11T07:05:34.091Z,101916.44
2023-02-11T07:08:37.201Z,101904.75
2023-02-11T07:11:39.155Z,101910.25
2023-02-11T07:14:40.618Z,101903.88
2023-02-11T07:17:42.143Z,101905.69
2023-02-11T07:20:43.994Z,101908.41
2023-02-11T07:23:45.504Z,101911.88
2023-02-11T07:26:46.977Z,101920.13
2023-02-11T07:29:48.671Z,101924.66
2023-02-11T07:32:50.194Z,101921.09
2023-02-11T07:35:52.052Z,101925.66
2023-02-11T07:38:53.804Z,101929.38
2023-02-11T07:41:56.674Z,101930.31
2023-02-11T07:44:58.609Z,101932.19
2023-02-11T07:48:00.082Z,101930.22
2023-02-11T07:51:15.525Z,101929.13
2023-02-11T07:54:17.811Z,101945.25
2023-02-11T07:57:19.290Z,101939.72
2023-02-11T08:00:21.242Z,101932.34
2023-02-11T08:03:22.931Z,101947.50
2023-02-11T08:06:27.730Z,101929.16
2023-02-11T08:09:29.210Z,101926.34
2023-02-11T08:12:30.682Z,101919.81
2023-02-11T08:15:32.179Z,101919.59
2023-02-11T08:18:34.652Z,101932.78
2023-02-11T08:21:36.222Z,101925.41
2023-02-11T08:24:37.755Z,101929.59
2023-02-11T08:27:39.238Z,101925.78
2023-02-11T08:30:40.772Z,101922.81
2023-02-11T08:33:42.423Z,101925.44
2023-02-11T08:36:44.874Z,101938.88
2023-02-11T08:39:47.312Z,101949.59
2023-02-11T08:42:48.889Z,101952.19
2023-02-11T08:45:50.679Z,101957.47
2023-02-11T08:48:53.149Z,101950.22
2023-02-11T08:51:56.154Z,101953.78
2023-02-11T08:54:57.629Z,101962.78
2023-02-11T08:57:59.181Z,101966.34
2023-02-11T09:01:00.825Z,101973.53
2023-02-11T09:04:02.471Z,101970.81
2023-02-11T09:07:04.634Z,101974.50
2023-02-11T09:10:06.822Z,101971.78
2023-02-11T09:13:09.045Z,101975.34
2023-02-11T09:16:18.394Z,101972.44
2023-02-11T09:19:20.857Z,101971.69
2023-02-11T09:22:22.313Z,101983.38
2023-02-11T09:25:23.890Z,101989.56
2023-02-11T09:28:25.430Z,101991.16
2023-02-11T09:31:29.176Z,101989.19
2023-02-11T09:34:31.486Z,101987.34
2023-02-11T09:37:34.627Z,101992.63
2023-02-11T09:40:42.895Z,101992.41
2023-02-11T09:43:46.652Z,101992.28
2023-02-11T09:46:55.880Z,102004.88
2023-02-11T09:50:02.518Z,102010.16
2023-02-11T09:53:34.299Z,102008.19
2023-02-11T09:56:36.579Z,102020.75
2023-02-11T09:59:38.070Z,102031.50
2023-02-11T10:02:48.690Z,102033.97
2023-02-11T10:05:59.321Z,102044.81
2023-02-11T10:09:28.556Z,102062.59
2023-02-11T10:12:39.142Z,102054.34
2023-02-11T10:16:05.272Z,102056.09
2023-02-11T10:19:15.659Z,102059.66
2023-02-11T10:22:25.550Z,102057.69
2023-02-11T10:25:45.516Z,102056.69
2023-02-11T10:28:52.810Z,102058.56
2023-02-11T10:31:57.188Z,102067.44
2023-02-11T10:35:04.189Z,102062.63
2023-02-11T10:38:05.728Z,102060.78
2023-02-11T10:41:24.188Z,102055.25
2023-02-11T10:44:31.812Z,102052.53
2023-02-11T10:47:37.495Z,102055.25
2023-02-11T10:50:39.031Z,102063.38
2023-02-11T10:53:40.868Z,102056.97
2023-02-11T10:56:49.946Z,102053.28
2023-02-11T10:59:58.404Z,102055.00
2023-02-11T11:03:01.264Z,102054.91
2023-02-11T11:06:05.367Z,102052.19
2023-02-11T11:09:06.910Z,102056.75
2023-02-11T11:12:24.827Z,102059.31
2023-02-11T11:15:29.036Z,102058.34
2023-02-11T11:18:30.510Z,102060.31
2023-02-11T11:21:41.295Z,102058.47
2023-02-11T11:24:46.662Z,102068.31
2023-02-11T11:27:54.322Z,102063.88
2023-02-11T11:30:57.357Z,102072.03
2023-02-11T11:34:02.056Z,102069.31
2023-02-11T11:37:26.040Z,102062.88
2023-02-11T11:40:32.464Z,102065.59
2023-02-11T11:43:34.005Z,102059.31
2023-02-11T11:46:40.656Z,102058.47
2023-02-11T11:50:12.236Z,102074.50
2023-02-11T11:53:20.973Z,102072.78
2023-02-11T11:56:26.132Z,102066.34
2023-02-11T11:59:28.463Z,102073.63
2023-02-11T12:02:48.269Z,102071.69
2023-02-11T12:06:19.196Z,102077.22
2023-02-11T12:09:31.976Z,102068.97
2023-02-11T12:13:00.550Z,102059.72
2023-02-11T12:16:25.021Z,102052.44
2023-02-11T12:19:38.554Z,102055.94
2023-02-11T12:23:17.424Z,102047.66
2023-02-11T12:26:26.387Z,102065.00
2023-02-11T12:29:33.492Z,102076.75
2023-02-11T12:32:50.310Z,102062.28
2023-02-11T12:35:55.056Z,102060.59
2023-02-11T12:39:08.428Z,102065.09
2023-02-11T12:42:43.045Z,102050.81
2023-02-11T12:46:05.986Z,102062.88
2023-02-11T12:49:16.532Z,102062.59
2023-02-11T12:52:23.519Z,102067.63
2023-02-11T12:55:37.030Z,102067.53
2023-02-11T12:58:45.511Z,102069.25
2023-02-11T13:01:50.106Z,102067.19
2023-02-11T13:04:55.754Z,102063.25
2023-02-11T13:08:05.780Z,102067.25
2023-02-11T13:11:14.805Z,102066.91
2023-02-11T13:14:26.888Z,102058.28
2023-02-11T13:17:41.100Z,102057.09
2023-02-11T13:20:54.165Z,102060.41
2023-02-11T13:24:02.762Z,102072.03
2023-02-11T13:27:16.637Z,102071.69
2023-02-11T13:30:40.824Z,102083.28
2023-02-11T13:33:44.294Z,102074.16
2023-02-11T13:36:54.896Z,102077.63
2023-02-11T13:40:00.586Z,102078.47
2023-02-11T13:43:04.954Z,102065.78
2023-02-11T13:46:12.388Z,102083.66
2023-02-11T13:49:41.517Z,102077.28
2023-02-11T13:52:43.142Z,102081.84
2023-02-11T13:55:51.233Z,102080.84
2023-02-11T13:58:52.806Z,102079.13
2023-02-11T14:02:20.715Z,102072.81
2023-02-11T14:05:49.521Z,102063.72
2023-02-11T14:09:09.381Z,102066.53
2023-02-11T14:12:24.032Z,102072.81
2023-02-11T14:15:27.430Z,102079.22
2023-02-11T14:18:45.003Z,102075.53
2023-02-11T14:21:46.955Z,102077.50
2023-02-11T14:24:53.311Z,102072.94
2023-02-11T14:28:15.195Z,102083.78
2023-02-11T14:31:25.999Z,102081.09
2023-02-11T14:35:08.367Z,102083.78
2023-02-11T14:38:17.575Z,102093.78
2023-02-11T14:41:26.693Z,102099.22
2023-02-11T14:44:31.355Z,102102.88
2023-02-11T14:47:52.589Z,102111.16
2023-02-11T14:51:00.780Z,102108.44
2023-02-11T14:54:27.411Z,102107.56
2023-02-11T14:57:29.675Z,102103.13
2023-02-11T15:00:31.196Z,102095.97
2023-02-11T15:03:34.601Z,102099.66
2023-02-11T15:06:39.273Z,102112.25
2023-02-11T15:09:44.132Z,102118.63
2023-02-11T15:12:49.926Z,102121.34
2023-02-11T15:15:55.897Z,102127.75
2023-02-11T15:19:04.035Z,102133.19
2023-02-11T15:22:15.612Z,102143.03
2023-02-11T15:25:19.439Z,102147.59
2023-02-11T15:28:28.810Z,102142.09
2023-02-11T15:31:32.527Z,102150.31
2023-02-11T15:34:36.462Z,102149.47
2023-02-11T15:37:39.346Z,102152.94
2023-02-11T15:40:40.897Z,102154.66
2023-02-11T15:43:43.718Z,102149.31
2023-02-11T15:46:47.325Z,102159.22
2023-02-11T15:49:49.279Z,102151.06
2023-02-11T15:52:52.129Z,102152.03
2023-02-11T15:56:08.541Z,102148.47
2023-02-11T15:59:25.660Z,102142.00
2023-02-11T16:02:34.770Z,102141.81
2023-02-11T16:05:38.084Z,102154.50
2023-02-11T16:08:41.504Z,102160.78
2023-02-11T16:11:45.782Z,102157.97
2023-02-11T16:14:47.246Z,102160.69
2023-02-11T16:17:48.806Z,102163.31
2023-02-11T16:20:51.030Z,102159.59
2023-02-11T16:23:54.908Z,102157.41
2023-02-11T16:27:02.077Z,102161.63
2023-02-11T16:30:05.422Z,102150.84
2023-02-11T16:33:10.820Z,102151.59
2023-02-11T16:36:14.258Z,102143.81
2023-02-11T16:39:17.184Z,102155.31
2023-02-11T16:42:18.764Z,102153.03
2023-02-11T16:45:20.648Z,102159.44
2023-02-11T16:48:22.120Z,102170.09
2023-02-11T16:51:23.870Z,102171.84
2023-02-11T16:54:25.360Z,102158.09
2023-02-11T16:57:29.856Z,102160.81
2023-02-11T17:00:32.135Z,102162.97
2023-02-11T17:03:37.548Z,102158.31
2023-02-11T17:06:39.085Z,102181.38
2023-02-11T17:09:40.630Z,102182.78
2023-02-11T17:12:42.102Z,102183.22
2023-02-11T17:15:43.723Z,102181.78
2023-02-11T17:18:45.580Z,102189.53
2023-02-11T17:21:49.884Z,102186.38
2023-02-11T17:24:51.444Z,102182.47
2023-02-11T17:27:53.696Z,102191.22
2023-02-11T17:30:55.310Z,102201.88
2023-02-11T17:33:56.789Z,102196.31
2023-02-11T17:36:59.540Z,102199.78
2023-02-11T17:40:01.073Z,102196.84
2023-02-11T17:43:02.968Z,102208.47
2023-02-11T17:46:08.743Z,102212.69
2023-02-11T17:49:11.570Z,102215.28
2023-02-11T17:52:13.141Z,102230.44
2023-02-11T17:55:14.702Z,102222.31
2023-02-11T17:58:16.636Z,102219.50
2023-02-11T18:01:18.221Z,102228.50
2023-02-11T18:04:19.987Z,102243.78
2023-02-11T18:07:21.583Z,102244.66
2023-02-11T18:10:23.189Z,102248.22
2023-02-11T18:13:24.970Z,102261.78
2023-02-11T18:16:28.865Z,102269.78
2023-02-11T18:19:32.276Z,102271.41
2023-02-11T18:22:39.052Z,102268.69
2023-02-11T18:25:44.186Z,102274.25
2023-02-11T18:28:46.303Z,102267.31
2023-02-11T18:31:47.881Z,102278.47
2023-02-11T18:34:49.371Z,102275.22
2023-02-11T18:37:52.219Z,102275.44
2023-02-11T18:40:57.509Z,102274.69
2023-02-11T18:44:02.619Z,102269.41
2023-02-11T18:47:04.339Z,102275.78
2023-02-11T18:50:09.013Z,102276.66
2023-02-11T18:53:12.235Z,102274.69
2023-02-11T18:56:16.790Z,102283.50
2023-02-11T18:59:18.273Z,102278.69
2023-02-11T19:02:19.864Z,102284.03
2023-02-11T19:05:21.638Z,102289.31
2023-02-11T19:08:23.192Z,102285.75
2023-02-11T19:11:44.907Z,102279.56
2023-02-11T19:14:46.408Z,102278.84
2023-02-11T19:17:48.098Z,102272.50
2023-02-11T19:20:49.678Z,102269.81
2023-02-11T19:23:51.163Z,102268.84
2023-02-11T19:26:55.716Z,102281.19
2023-02-11T19:29:57.241Z,102288.34
2023-02-11T19:32:58.701Z,102290.84
2023-02-11T19:36:07.704Z,102294.31
2023-02-11T19:39:10.025Z,102297.78
2023-02-11T19:42:12.228Z,102299.50
2023-02-11T19:45:13.730Z,102302.84
2023-02-11T19:48:15.206Z,102306.34
2023-02-11T19:51:17.556Z,102314.38
2023-02-11T19:54:20.253Z,102325.09
2023-02-11T19:57:21.800Z,102315.88
2023-02-11T20:00:23.379Z,102317.50
2023-02-11T20:03:24.858Z,102322.72
2023-02-11T20:06:30.242Z,102324.34
2023-02-11T20:09:32.230Z,102336.91
2023-02-11T20:12:33.756Z,102334.97
2023-02-11T20:15:35.356Z,102333.97
2023-02-11T20:18:37.212Z,102326.59
2023-02-11T20:21:39.375Z,102321.06
2023-02-11T20:24:40.937Z,102328.22
2023-02-11T20:27:42.438Z,102335.38
2023-02-11T20:30:43.948Z,102336.25
2023-02-11T20:33:46.691Z,102338.97
2023-02-11T20:36:51.808Z,102338.97
2023-02-11T20:39:53.620Z,102337.88
2023-02-11T20:42:56.591Z,102328.00
2023-02-11T20:46:05.826Z,102324.31
2023-02-11T20:49:08.630Z,102329.84
2023-02-11T20:52:10.135Z,102329.84
2023-02-11T20:55:11.931Z,102336.03
2023-02-11T20:58:13.374Z,102329.75
2023-02-11T21:01:24.658Z,102337.75
2023-02-11T21:04:29.378Z,102345.88
2023-02-11T21:07:31.339Z,102348.59
2023-02-11T21:10:32.823Z,102345.03
2023-02-11T21:13:38.347Z,102352.19
2023-02-11T21:16:40.846Z,102363.03
2023-02-11T21:19:43.259Z,102358.50
2023-02-11T21:22:44.898Z,102367.50
2023-02-11T21:25:46.578Z,102373.78
2023-02-11T21:28:48.781Z,102373.78
2023-02-11T21:31:51.320Z,102380.91
2023-02-11T21:34:53.988Z,102381.81
2023-02-11T21:37:55.464Z,102393.53
2023-02-11T21:41:03.428Z,102401.53
2023-02-11T21:44:05.110Z,102409.66
2023-02-11T21:47:06.714Z,102403.38
2023-02-11T21:50:08.476Z,102406.00
2023-02-11T21:53:10.416Z,102403.28
2023-02-11T21:56:17.269Z,102408.59
2023-02-11T21:59:18.816Z,102414.91
2023-02-11T22:02:20.305Z,102417.63
2023-02-11T22:05:22.142Z,102414.91
2023-02-11T22:08:23.612Z,102415.88
2023-02-11T22:11:25.143Z,102427.56
2023-02-11T22:14:26.785Z,102433.91
2023-02-11T22:17:28.234Z,102443.84
2023-02-11T22:20:29.773Z,102443.00
2023-02-11T22:23:31.929Z,102446.56
2023-02-11T22:26:33.416Z,102446.56
2023-02-11T22:29:34.973Z,102450.16
2023-02-11T22:32:36.573Z,102460.03
2023-02-11T22:35:38.090Z,102457.41
2023-02-11T22:38:39.712Z,102466.44
2023-02-11T22:41:42.729Z,102460.13
2023-02-11T22:44:44.486Z,102461.03
2023-02-11T22:47:46.008Z,102461.97
2023-02-11T22:50:47.622Z,102473.81
2023-02-11T22:53:54.252Z,102474.69
2023-02-11T22:56:55.765Z,102479.25
2023-02-11T22:59:57.263Z,102485.53
2023-02-11T23:02:58.940Z,102485.63
2023-02-11T23:06:00.849Z,102487.47
2023-02-11T23:09:07.424Z,102489.31
2023-02-11T23:12:08.812Z,102487.59
2023-02-11T23:15:10.611Z,102496.81
2023-02-11T23:18:13.060Z,102490.50
2023-02-11T23:21:23.283Z,102493.22
2023-02-11T23:24:24.829Z,102491.59
2023-02-11T23:27:26.344Z,102495.28
2023-02-11T23:30:28.524Z,102497.00
2023-02-11T23:33:30.103Z,102494.44
2023-02-11T23:36:31.930Z,102495.38
2023-02-11T23:39:33.446Z,102490.94
2023-02-11T23:42:35.033Z,102498.22
2023-02-11T23:45:36.681Z,102500.06
2023-02-11T23:48:40.219Z,102499.19
2023-02-11T23:51:41.707Z,102501.03
2023-02-11T23:54:43.360Z,102504.72
2023-02-11T23:57:44.861Z,102497.56
